Date,TemperatureHighF,TemperatureAvgF,TemperatureLowF,DewpointHighF,DewpointAvgF,DewpointLowF,HumidityHigh,HumidityAvg,HumidityLow,PressureMaxIn,PressureMinIn,WindSpeedMaxMPH,WindSpeedAvgMPH,GustSpeedMaxMPH,PrecipitationSumIn
2014-1-2,16.0,9.9,1.0,14.0,6.8,-3.0,92,86,81,30.40,30.20,0,0,1,0.00
2014-1-3,1.0,0.2,0.0,-3.0,-3.8,-4.0,81,81,81,30.39,30.38,0,0,0,0.00
2014-1-5,-3.0,-3.0,-3.0,-11.0,-11.0,-11.0,67,67,67,30.03,30.03,6,6,19,0.00
2014-1-6,-16.0,-16.0,-16.0,-23.0,-23.0,-23.0,68,68,68,30.17,30.17,5,5,14,0.00
2014-1-7,-2.0,-2.0,-2.0,-5.0,-7.9,-10.0,87,76,68,30.28,30.25,7,3,13,0.00
2014-1-8,15.0,7.1,-2.0,1.0,-1.5,-5.0,87,68,53,30.50,30.28,3,1,6,0.00
2014-1-9,24.0,23.3,22.0,22.0,21.3,20.0,93,92,91,30.23,30.15,2,2,7,0.00
2014-1-10,39.0,32.9,25.0,38.0,31.9,24.0,98,97,94,30.14,29.52,8,2,17,0.91
2014-1-11,39.0,33.6,30.0,38.0,29.3,-99.9,98,89,83,29.78,29.43,7,4,18,0.07
2014-1-12,41.0,34.3,27.0,35.0,29.4,24.0,93,83,72,29.86,29.60,8,5,18,0.00
2014-1-13,44.0,37.2,25.0,36.0,31.9,22.0,89,81,69,29.77,29.54,7,3,17,0.00
2014-1-14,34.0,26.3,20.0,31.0,22.4,16.0,95,86,74,29.88,29.59,12,5,30,0.00
2014-1-15,20.0,16.2,12.0,16.0,10.5,8.0,87,78,70,30.08,29.85,6,3,15,0.00
2014-1-16,33.0,25.4,17.0,31.0,20.8,11.0,94,83,70,29.82,29.47,10,5,22,0.01
2014-1-17,17.0,13.8,10.0,13.0,8.2,4.0,88,78,70,29.96,29.69,7,4,14,0.01
2014-1-18,19.0,13.1,8.0,17.0,8.3,-99.9,93,86,80,29.93,29.74,3,1,10,0.00
2014-1-19,38.0,22.9,8.0,31.0,18.4,6.0,91,83,74,29.84,29.52,12,5,24,0.00
2014-1-20,34.0,27.3,12.0,29.0,23.2,9.0,90,85,79,30.08,29.59,7,3,14,0.00
2014-1-21,10.0,3.6,0.0,6.0,-2.6,-7.0,85,75,67,30.26,30.09,8,5,18,0.00
2014-1-22,13.0,5.3,0.0,7.0,-1.5,-9.0,80,73,66,30.14,29.92,6,3,13,0.00
2014-1-23,8.0,3.0,0.0,-2.0,-5.1,-7.0,73,69,63,30.57,30.52,6,3,12,0.00
2014-1-24,26.0,20.4,12.0,25.0,12.0,0.0,94,71,51,29.99,29.46,13,8,29,0.00
2014-1-25,31.0,17.6,5.0,30.0,5.7,-99.9,96,65,40,29.86,29.39,10,5,21,0.00
2014-1-26,29.0,15.7,5.0,22.0,10.1,-4.0,88,78,59,29.79,29.39,12,5,28,0.00
2014-1-27,5.0,-0.8,-9.0,-1.0,-8.2,-17.0,75,70,66,30.38,29.82,10,6,20,0.00
2014-1-28,-2.0,-6.6,-10.0,-7.0,-12.7,-17.0,78,73,69,30.40,30.23,2,2,5,0.00
2014-1-29,22.0,21.5,21.0,8.0,7.7,7.0,56,55,54,30.02,29.98,7,6,20,0.00
2014-1-30,31.0,25.8,20.0,27.0,17.7,8.0,92,72,53,29.97,29.65,12,6,24,0.00
2014-1-31,26.0,19.6,15.0,22.0,12.3,7.0,84,73,63,30.17,29.90,3,1,9,0.00
2014-2-1,29.0,22.4,18.0,27.0,18.4,-99.9,94,89,87,30.09,29.86,4,2,8,0.00
2014-2-2,20.0,13.9,1.0,15.0,7.9,-2.0,88,77,60,30.31,30.09,4,1,8,0.00
2014-2-3,23.0,13.5,0.0,4.0,2.3,-3.0,88,62,42,30.37,30.29,4,1,6,0.00
2014-2-4,23.0,16.9,8.0,21.0,11.5,1.0,94,79,68,30.42,30.11,5,2,10,0.00
2014-2-5,23.0,19.1,9.0,22.0,16.4,6.0,95,89,75,30.43,30.04,8,3,15,0.00
2014-2-6,10.0,2.0,-1.0,7.0,-2.5,-7.0,87,81,67,30.42,30.36,7,4,15,0.00
2014-2-19,46.0,39.4,31.0,30.0,28.3,27.0,85,66,47,29.94,29.65,6,3,11,0.02
2014-2-20,47.0,35.8,33.0,46.0,33.7,29.0,98,93,81,29.93,29.22,18,4,34,0.76
2014-2-21,36.0,29.3,24.0,31.0,20.5,10.0,92,70,51,29.82,29.33,19,11,38,0.02
2014-2-22,34.0,24.8,19.0,18.0,10.7,-99.9,72,58,41,30.06,29.83,7,5,16,0.00
2014-2-23,27.0,18.7,13.0,12.0,7.5,4.0,70,62,48,30.21,30.05,7,4,18,0.00
2014-2-24,24.0,16.7,10.0,10.0,6.7,4.0,78,65,50,30.27,30.20,8,3,16,0.00
2014-2-25,21.0,13.7,3.0,10.0,4.2,-5.0,82,66,54,30.23,30.13,8,4,18,0.00
2014-2-26,3.0,0.4,-3.0,-5.0,-6.5,-8.0,77,72,69,30.23,30.21,5,2,11,0.00
2014-2-27,10.0,5.2,0.0,-10.0,-11.8,-14.0,59,45,34,30.18,30.05,6,2,14,0.00
2014-4-2,43.0,37.5,30.0,31.0,28.2,25.0,83,70,55,30.19,30.08,6,3,11,0.00
2014-4-3,42.0,37.0,34.0,36.0,33.1,30.0,97,87,71,30.06,29.70,10,5,18,0.37
2014-4-4,45.0,38.5,34.0,43.0,33.6,25.0,98,83,67,30.01,29.46,12,6,29,0.01
2014-4-5,52.0,39.6,29.0,28.0,23.3,-99.9,86,59,36,30.21,30.01,6,2,10,0.01
2014-4-6,58.0,44.9,29.0,34.0,28.6,22.0,77,55,35,30.17,29.96,5,2,13,0.00
2014-4-7,54.0,44.6,32.0,35.0,30.3,28.0,87,60,39,29.96,29.64,8,2,14,0.00
2014-4-8,59.0,49.2,39.0,44.0,38.8,30.0,91,69,41,29.94,29.65,5,2,11,0.00
2014-4-9,41.0,37.2,35.0,37.0,33.9,32.0,90,88,85,29.98,29.95,0,0,3,0.00
2014-4-15,37.0,29.8,22.0,26.0,19.2,14.0,91,67,44,30.21,30.00,5,2,13,0.01
2014-4-16,53.0,40.4,25.0,28.0,25.0,21.0,86,57,36,30.31,30.13,8,4,20,0.01
2014-4-17,60.0,50.8,42.0,43.0,35.6,26.0,74,56,48,30.26,30.11,9,4,17,0.00
2014-4-18,53.0,43.7,36.0,39.0,35.3,28.0,89,73,57,30.39,30.26,6,3,13,0.00
2014-4-19,66.0,47.8,35.0,41.0,32.7,-99.9,82,61,38,30.40,30.23,6,2,13,0.00
2014-4-20,79.0,62.9,45.0,45.0,39.3,32.0,66,44,28,30.25,30.03,6,2,13,0.00
2014-4-21,72.0,64.3,58.0,59.0,51.9,44.0,93,66,46,30.03,29.82,7,2,12,0.00
2014-4-22,59.0,49.3,36.0,56.0,35.4,29.0,94,60,36,30.10,29.82,6,3,12,0.00
2014-4-23,50.0,41.0,31.0,31.0,27.5,22.0,88,61,41,30.20,30.04,6,2,12,0.00
2014-4-24,65.0,51.5,36.0,41.0,36.2,29.0,86,59,32,30.10,29.70,8,3,25,0.07
2014-4-25,68.0,60.3,46.0,44.0,40.8,36.0,89,51,34,29.85,29.77,8,4,19,0.22
2014-4-26,57.0,45.4,39.0,38.0,31.7,-99.9,80,62,47,30.06,29.85,8,4,14,0.00
2014-4-27,56.0,47.8,41.0,44.0,37.6,35.0,85,68,48,30.07,29.87,8,5,19,0.10
2014-4-28,53.0,47.3,42.0,48.0,42.5,36.0,95,84,62,29.89,29.56,7,4,18,0.63
2014-4-29,58.0,51.6,47.0,51.0,47.3,46.0,98,86,64,29.67,29.49,7,2,16,0.31
2014-4-30,52.0,47.8,43.0,49.0,43.0,37.0,95,84,71,29.80,29.67,8,3,17,0.02
2014-5-1,48.0,44.2,41.0,43.0,40.3,36.0,92,86,76,29.82,29.69,10,4,19,0.07
2014-5-2,52.0,48.5,46.0,44.0,43.1,42.0,92,82,70,29.83,29.69,8,4,16,0.01
2014-5-13,55.0,53.5,51.0,48.0,47.5,46.0,82,80,78,30.15,30.07,2,2,7,0.59
2014-5-14,56.0,51.0,43.0,46.0,41.8,38.0,90,71,59,30.21,30.02,5,2,9,0.12
2014-5-15,55.0,44.9,38.0,42.0,38.5,34.0,95,80,49,30.09,29.92,5,2,16,0.38
2014-5-16,47.0,40.4,34.0,39.0,36.1,32.0,95,85,73,30.11,30.03,3,1,5,0.16
2014-5-17,60.0,49.5,39.0,39.0,33.2,-99.9,95,60,35,30.19,30.09,7,2,14,0.01
2014-5-18,71.0,59.6,46.0,44.0,39.7,35.0,70,49,32,30.25,30.18,7,3,16,0.00
2014-5-19,69.0,58.2,46.0,45.0,35.7,-99.9,80,50,37,30.24,29.97,9,2,18,0.00
2014-5-23,70.0,57.1,47.0,51.0,46.7,42.0,95,71,46,30.23,30.15,4,1,9,0.00
2014-5-24,74.0,58.4,43.0,50.0,43.2,-99.9,94,63,42,30.27,30.16,3,1,6,0.00
2014-5-25,85.0,66.9,45.0,54.0,48.2,43.0,95,57,26,30.17,30.03,4,1,10,0.00
2014-5-26,90.0,74.0,61.0,68.0,63.0,52.0,96,71,42,30.07,29.92,5,1,13,0.43
2014-5-27,86.0,71.6,59.0,69.0,66.0,58.0,97,84,52,29.98,29.89,7,2,15,0.62
2014-5-28,71.0,62.7,56.0,61.0,55.6,48.0,98,80,51,30.09,29.95,4,2,10,0.10
2014-5-29,75.0,63.7,54.0,61.0,54.5,48.0,90,73,57,30.16,30.07,4,2,9,0.04
2014-5-30,79.0,61.8,51.0,60.0,52.5,48.0,92,74,48,30.22,30.14,3,1,8,0.00
2014-5-31,90.0,70.1,52.0,59.0,48.3,-99.9,94,54,29,30.22,30.08,3,1,8,0.00
2014-6-1,88.0,75.2,61.0,69.0,62.0,54.0,87,66,44,30.10,29.89,9,3,21,0.05
2014-6-2,82.0,75.6,69.0,69.0,65.9,63.0,91,73,55,29.94,29.81,8,4,22,0.09
2014-6-3,82.0,73.1,65.0,64.0,56.2,51.0,77,58,35,29.99,29.85,6,2,14,0.06
2014-6-4,64.0,60.5,54.0,59.0,56.5,52.0,94,87,73,29.94,29.79,3,1,7,0.19
2014-6-5,77.0,66.6,51.0,52.0,47.2,44.0,97,53,31,30.02,29.95,3,1,8,0.01
2014-6-6,84.0,67.2,47.0,50.0,46.2,38.0,93,53,22,30.03,29.96,3,1,7,0.01
2014-6-7,86.0,68.4,52.0,61.0,49.1,-99.9,90,56,35,30.03,29.86,3,1,9,0.01
2014-6-8,70.0,62.4,54.0,59.0,47.3,36.0,94,61,37,30.08,29.88,5,3,11,0.25
2014-6-9,77.0,63.4,53.0,61.0,51.1,42.0,74,64,55,30.06,29.94,4,1,7,0.00
2014-6-10,68.0,59.9,57.0,59.0,53.3,46.0,97,79,65,29.97,29.80,4,2,9,0.95
2014-6-11,65.0,60.0,55.0,60.0,57.8,54.0,97,93,85,29.79,29.71,5,1,14,1.83
2014-6-12,79.0,68.4,61.0,66.0,60.8,51.0,97,78,51,29.89,29.76,7,2,21,0.01
2014-6-13,73.0,61.9,53.0,51.0,45.8,39.0,80,59,29,30.05,29.89,3,1,8,0.00
2014-6-14,81.0,64.0,50.0,51.0,42.7,-99.9,86,56,30,30.13,29.98,4,1,12,0.00
2014-6-15,84.0,76.9,62.0,68.0,60.6,48.0,72,57,51,30.02,29.81,7,3,21,0.00
2014-6-16,89.0,77.1,65.0,70.0,64.4,60.0,90,68,42,30.09,29.91,4,2,12,0.00
2014-6-17,90.0,81.1,76.0,70.0,68.2,64.0,78,66,49,29.94,29.80,7,3,18,0.01
2014-6-18,79.0,72.5,64.0,72.0,66.8,60.0,95,83,71,30.02,29.89,4,2,8,0.27
2014-6-19,76.0,66.1,60.0,68.0,63.3,59.0,97,91,75,30.13,30.04,4,1,8,0.36
2014-6-20,86.0,73.6,63.0,71.0,67.2,61.0,98,81,62,30.01,29.95,5,2,11,0.05
2014-6-21,84.0,63.2,60.0,70.0,53.7,-99.9,97,84,59,30.02,29.91,6,1,12,0.95
2014-6-22,85.0,72.3,64.0,71.0,65.9,62.0,98,82,58,29.96,29.88,2,1,5,0.95
2014-6-23,81.0,71.8,64.0,71.0,66.9,61.0,95,85,66,29.90,29.83,3,1,7,0.02
2014-6-24,85.0,73.3,69.0,71.0,68.7,66.0,97,87,54,29.90,29.86,4,1,8,0.30
2014-6-25,79.0,66.2,60.0,68.0,62.9,58.0,97,89,68,30.08,29.92,3,1,7,0.02
2014-6-26,74.0,61.2,59.0,64.0,58.8,57.0,95,91,72,30.13,30.04,2,1,5,0.02
2014-6-27,90.0,80.5,58.0,69.0,65.3,57.0,97,62,47,30.07,29.98,4,2,9,0.00
2014-6-28,88.0,73.5,72.0,73.0,54.9,-99.9,86,65,59,30.03,29.93,5,2,12,0.00
2014-6-29,80.0,73.6,67.0,71.0,68.9,66.0,96,86,70,30.01,29.91,6,3,12,0.29
2014-6-30,88.0,76.9,66.0,75.0,71.4,65.0,96,84,65,29.96,29.76,6,3,15,2.44
2014-7-1,79.0,72.5,66.0,66.0,64.3,62.0,97,77,57,29.79,29.64,9,4,18,2.19
2014-7-2,69.0,61.7,55.0,63.0,56.8,54.0,96,84,68,30.06,29.79,5,2,12,0.14
2014-7-3,75.0,63.5,53.0,56.0,53.6,49.0,97,74,43,30.19,30.05,4,1,8,0.14
2014-7-4,80.0,69.4,57.0,58.0,53.3,51.0,86,59,39,30.33,30.25,3,1,7,0.01
2014-7-5,77.0,66.3,55.0,60.0,50.7,-99.9,93,64,49,30.29,30.08,5,2,13,0.00
2014-7-6,86.0,74.1,63.0,74.0,66.3,58.0,84,77,65,30.05,29.74,7,3,14,0.00
2014-7-7,89.0,78.3,70.0,72.0,68.2,63.0,97,75,43,29.78,29.73,5,2,15,0.46
2014-7-8,81.0,74.6,68.0,67.0,63.4,59.0,95,70,48,29.84,29.61,10,3,15,0.41
2014-7-9,76.0,67.3,61.0,61.0,58.1,53.0,92,74,51,30.03,29.86,3,1,7,0.03
2014-7-10,79.0,67.6,55.0,61.0,56.2,53.0,96,69,44,30.21,30.11,2,0,6,0.00
2014-7-11,84.0,69.6,55.0,64.0,57.7,53.0,95,69,38,30.22,30.11,2,0,8,0.02
2014-7-12,79.0,69.4,70.0,75.0,63.6,62.0,94,82,71,30.13,29.85,6,2,15,0.16
2014-7-13,82.0,72.8,66.0,69.0,66.6,55.0,96,82,60,29.97,29.87,6,1,15,0.39
2014-7-14,75.0,65.2,59.0,65.0,56.2,52.0,96,76,45,29.93,29.82,3,1,6,0.39
2014-7-15,69.0,60.9,53.0,57.0,53.8,50.0,95,79,61,29.99,29.87,4,1,9,0.06
2014-7-16,70.0,58.6,52.0,57.0,52.3,49.0,97,83,49,30.06,29.99,3,1,7,0.01
2014-7-17,80.0,66.3,51.0,57.0,52.7,49.0,93,65,39,30.13,30.06,3,1,6,0.01
2014-7-18,79.0,64.2,54.0,62.0,56.4,53.0,97,78,52,30.20,30.11,3,0,8,0.00
2014-7-19,80.0,65.9,53.0,61.0,55.9,52.0,97,74,45,30.13,30.04,1,0,7,0.00
2014-7-20,82.0,66.3,57.0,62.0,58.1,56.0,96,78,46,30.10,30.03,3,1,7,0.00
2014-7-21,88.0,73.2,60.0,67.0,63.6,59.0,97,74,48,30.13,30.05,3,1,10,0.00
2014-7-22,90.0,80.6,70.0,77.0,71.5,65.0,87,75,61,30.08,29.96,5,2,14,0.00
2014-7-23,74.0,67.3,60.0,65.0,56.9,51.0,80,70,50,30.18,30.07,6,4,20,0.00
2014-7-24,74.0,68.0,54.0,56.0,51.3,48.0,92,58,40,30.21,30.07,3,2,9,0.00
2014-7-25,74.0,65.7,53.0,61.0,56.9,49.0,87,73,63,30.11,29.93,6,2,14,0.00
2014-7-26,84.0,65.4,67.0,71.0,58.5,61.0,90,67,64,29.93,29.82,1,1,4,0.00
2014-7-27,86.0,71.9,63.0,71.0,64.2,59.0,97,80,44,29.92,29.74,5,2,16,0.13
2014-7-28,71.0,63.7,56.0,56.0,53.2,50.0,87,70,48,30.10,29.95,4,1,9,0.13
2014-7-29,80.0,67.0,57.0,61.0,56.3,53.0,90,71,48,30.07,30.01,3,1,8,0.12
2014-7-30,79.0,66.1,57.0,62.0,58.8,56.0,95,79,50,30.06,30.02,2,0,6,0.03
2014-7-31,82.0,65.5,58.0,63.0,55.1,57.0,96,69,46,30.06,30.03,6,2,16,0.01
2014-8-1,83.0,71.5,60.0,65.0,61.0,58.0,93,72,49,30.11,30.06,2,1,8,0.01
2014-8-2,87.0,73.3,56.0,63.0,58.4,55.0,97,65,39,30.19,30.09,2,1,4,0.01
2014-8-3,89.0,80.9,69.0,66.0,64.1,63.0,84,59,43,30.16,30.09,5,1,12,0.00
2014-8-4,87.0,72.8,64.0,67.0,64.6,61.0,96,78,46,30.14,30.05,4,1,7,1.01
2014-8-5,79.0,70.0,64.0,68.0,65.2,62.0,98,86,70,30.09,30.04,2,1,4,1.92
2014-8-6,81.0,70.8,58.0,63.0,57.4,52.0,97,65,41,30.10,30.06,3,1,7,0.00
2014-8-7,82.0,69.1,57.0,63.0,58.1,54.0,95,71,40,30.13,30.07,2,1,10,0.00
2014-8-8,82.0,74.6,61.0,63.0,60.4,58.0,97,64,45,30.11,30.07,4,2,12,0.00
2014-8-9,78.0,65.9,61.0,64.0,58.8,58.0,96,76,50,30.15,30.09,4,1,9,0.00
2014-8-10,80.0,71.5,67.0,65.0,62.7,60.0,84,74,57,30.09,29.99,3,1,6,0.00
2014-8-11,83.0,71.0,67.0,70.0,66.7,61.0,97,87,60,30.00,29.80,2,0,6,1.06
2014-8-12,70.0,63.6,59.0,66.0,58.9,56.0,95,85,71,29.98,29.78,4,1,9,0.08
2014-8-13,82.0,67.5,55.0,65.0,58.7,52.0,92,75,55,30.06,29.99,4,1,12,0.01
2014-8-14,74.0,62.8,53.0,58.0,53.8,47.0,95,75,48,30.14,30.06,3,1,7,0.00
2014-8-15,81.0,68.0,49.0,60.0,53.8,47.0,94,64,42,30.11,29.98,5,1,9,0.00
2014-8-16,82.0,69.4,61.0,70.0,62.7,59.0,94,78,65,29.98,29.91,5,1,10,0.00
2014-8-17,74.0,67.3,63.0,66.0,63.6,61.0,96,88,74,30.02,29.95,3,1,9,0.00
2014-8-18,72.0,64.7,63.0,69.0,63.3,62.0,97,94,88,29.98,29.81,1,0,4,0.00
2014-8-19,86.0,75.6,69.0,72.0,68.8,64.0,95,81,53,29.81,29.71,8,2,19,0.16
2014-8-20,86.0,77.5,63.0,70.0,66.7,61.0,96,71,54,29.93,29.81,6,2,15,0.16
2014-8-21,77.0,75.0,73.0,75.0,73.2,72.0,97,94,86,30.00,29.91,2,0,8,0.85
2014-8-22,88.0,77.3,71.0,77.0,73.2,70.0,98,89,65,30.01,29.91,4,1,8,2.43
2014-8-23,86.0,75.9,72.0,76.0,72.4,69.0,97,90,71,30.12,29.99,4,1,15,0.81
2014-8-24,91.0,80.9,69.0,76.0,73.3,68.0,98,79,61,30.04,29.98,3,1,6,0.01
2014-8-25,86.0,75.5,68.0,78.0,71.9,67.0,96,89,77,30.09,30.00,6,1,17,0.19
2014-8-26,84.0,75.3,69.0,72.0,68.8,66.0,96,81,64,30.19,30.03,3,1,12,0.07
2014-8-27,80.0,74.7,64.0,66.0,64.0,62.0,94,71,58,30.18,30.16,2,1,5,0.00
2014-8-28,77.0,71.6,67.0,65.0,60.3,56.0,91,69,51,30.16,30.05,2,1,9,0.00
2014-8-29,87.0,77.0,68.0,76.0,70.5,65.0,91,81,63,30.05,29.88,4,2,11,0.07
2014-8-30,82.0,73.9,70.0,71.0,66.8,66.0,93,76,63,29.92,29.84,8,4,19,0.07
2014-8-31,87.0,75.8,66.0,71.0,67.6,64.0,97,78,52,29.97,29.86,4,1,8,0.00
2014-9-1,82.0,76.0,69.0,72.0,69.5,67.0,93,81,61,29.85,29.74,8,3,17,0.10
2014-9-2,83.0,74.2,63.0,70.0,62.6,58.0,96,70,44,29.99,29.88,5,1,13,0.01
2014-9-3,86.0,73.1,57.0,66.0,62.0,56.0,96,71,46,30.06,29.96,4,1,10,0.01
2014-9-4,84.0,75.9,68.0,75.0,68.9,65.0,94,80,63,30.06,29.90,6,3,18,0.16
2014-9-5,90.0,80.2,75.0,76.0,73.6,71.0,89,81,59,29.99,29.93,6,3,16,0.01
2014-9-7,81.0,71.2,56.0,58.0,54.2,53.0,89,57,40,30.24,30.14,2,0,4,0.00
2014-9-8,79.0,66.7,52.0,59.0,55.1,51.0,96,69,42,30.17,30.01,3,1,7,0.00
2014-9-9,83.0,71.6,63.0,67.0,62.1,56.0,85,73,53,30.03,29.89,4,1,9,0.00
2014-9-10,80.0,68.7,55.0,72.0,65.1,51.0,95,88,72,29.88,29.53,9,4,23,1.72
2014-9-11,54.0,50.2,48.0,50.0,44.9,43.0,85,82,76,30.31,29.90,3,1,11,0.01
2014-9-12,53.0,48.0,43.0,46.0,43.2,41.0,94,84,69,30.36,30.28,5,1,11,0.14
2014-9-13,61.0,46.4,39.0,46.0,40.8,38.0,95,81,53,30.39,30.29,3,1,7,0.01
2014-9-14,51.0,44.0,39.0,47.0,42.2,38.0,96,93,85,30.35,30.19,1,0,4,0.01
2014-9-15,60.0,53.5,47.0,54.0,49.8,45.0,95,87,73,30.20,30.10,4,1,9,0.00
2014-9-17,72.0,59.4,44.0,51.0,48.2,42.0,94,69,47,30.11,29.99,4,1,7,0.00
2014-9-18,68.0,56.8,46.0,57.0,52.1,44.0,96,85,68,30.19,30.05,3,1,8,0.00
2014-9-19,76.0,62.8,48.0,56.0,50.2,47.0,96,67,36,30.19,29.94,7,2,16,0.01
2014-9-20,76.0,66.8,61.0,68.0,59.6,51.0,93,77,60,29.96,29.74,6,3,14,0.01
2014-9-21,69.0,59.3,45.0,66.0,53.1,43.0,93,80,60,30.16,29.73,7,2,17,0.11
2014-9-22,69.0,53.9,41.0,52.0,45.3,39.0,94,76,46,30.31,30.16,2,0,8,0.00
2014-9-23,77.0,59.0,46.0,53.0,49.0,44.0,95,73,41,30.37,30.28,2,0,7,0.00
2014-9-25,77.0,62.4,52.0,59.0,54.2,50.0,95,77,45,30.32,30.24,2,0,4,0.00
2014-9-26,81.0,63.2,50.0,61.0,54.5,49.0,96,76,44,30.29,30.23,1,0,4,0.00
2014-9-27,79.0,62.2,51.0,62.0,54.3,50.0,96,76,49,30.29,30.19,2,0,6,0.00
2014-9-28,81.0,63.6,50.0,62.0,55.9,49.0,96,79,43,30.20,30.09,3,0,5,0.00
2014-9-29,85.0,63.8,53.0,62.0,55.5,51.0,96,78,42,30.09,29.94,5,2,12,0.01
2014-9-30,56.0,51.5,46.0,50.0,47.1,44.0,92,85,74,30.09,30.03,4,2,10,0.01
2014-10-1,71.0,60.8,49.0,56.0,52.0,46.0,90,74,56,30.04,29.91,4,1,11,0.00
2014-10-2,74.0,67.9,61.0,66.0,62.8,55.0,94,84,72,29.91,29.65,4,1,11,0.03
2014-10-3,65.0,54.5,44.0,64.0,49.2,31.0,95,83,60,29.80,29.48,9,3,23,1.01
2014-10-4,46.0,40.8,35.0,41.0,34.3,29.0,91,77,62,29.78,29.69,7,3,17,0.03
2014-10-5,56.0,45.0,35.0,37.0,34.4,32.0,90,70,42,29.76,29.64,7,3,19,0.01
2014-10-6,59.0,53.6,47.0,47.0,38.3,35.0,70,57,43,29.68,29.58,8,3,17,0.02
2014-10-7,67.0,54.8,47.0,51.0,44.7,38.0,88,70,46,29.86,29.65,7,2,15,0.01
2014-10-8,66.0,53.9,43.0,43.0,38.8,33.0,85,60,34,30.04,29.87,7,2,18,0.00
2014-10-9,63.0,50.7,39.0,41.0,36.7,28.0,91,62,30,30.16,30.05,3,0,9,0.00
2014-10-10,57.0,46.7,37.0,45.0,40.4,35.0,94,80,58,30.21,30.14,4,1,9,0.00
2014-10-11,61.0,45.6,34.0,43.0,35.7,33.0,96,71,42,30.28,30.18,3,0,8,0.00
2014-10-12,63.0,49.2,34.0,54.0,42.1,32.0,95,79,45,30.18,29.89,4,1,12,0.08
2014-10-13,66.0,60.7,56.0,65.0,58.7,54.0,95,93,81,29.89,29.53,5,1,14,0.30
2014-10-14,65.0,59.2,51.0,62.0,57.1,50.0,95,93,87,29.68,29.47,6,2,12,0.02
2014-10-21,52.0,47.1,38.0,44.0,41.0,36.0,92,80,70,30.28,30.02,6,1,13,0.02
2014-10-22,58.0,45.4,34.0,44.0,39.4,32.0,94,81,54,30.38,30.27,3,1,7,0.00
2014-10-23,61.0,48.0,32.0,48.0,40.4,30.0,95,77,55,30.27,30.07,5,1,12,0.00
2014-10-24,69.0,58.2,47.0,53.0,48.5,44.0,90,71,47,30.09,29.94,5,1,9,0.00
2014-10-25,72.0,61.7,52.0,55.0,43.0,31.0,93,56,23,29.99,29.91,6,2,16,0.00
2014-10-26,67.0,52.3,38.0,42.0,34.1,28.0,75,53,24,30.06,29.88,3,1,7,0.00
2014-10-27,78.0,64.8,48.0,62.0,52.8,36.0,79,65,50,29.88,29.59,8,3,21,0.00
2014-10-30,51.0,42.2,30.0,39.0,35.0,28.0,94,77,59,30.15,30.05,5,1,11,0.00
2014-10-31,46.0,38.2,34.0,39.0,28.0,21.0,88,67,53,30.37,30.04,9,4,24,0.00
2014-11-1,44.0,35.5,27.0,32.0,26.8,23.0,92,71,57,30.47,30.37,5,2,12,0.00
2014-11-2,52.0,40.4,25.0,34.0,26.1,21.0,94,62,30,30.43,30.17,7,3,18,0.00
2014-11-3,62.0,53.4,42.0,47.0,36.6,26.0,63,53,43,30.17,29.94,9,5,23,0.00
2014-11-4,60.0,50.6,42.0,52.0,41.9,37.0,88,73,46,30.08,29.88,10,5,21,0.01
2014-11-5,60.0,49.6,33.0,41.0,37.7,31.0,93,66,43,30.15,29.85,7,3,21,0.00
2014-11-6,51.0,42.1,37.0,42.0,34.5,27.0,87,74,63,30.23,29.78,9,4,19,0.00
2014-11-7,45.0,38.0,28.0,33.0,27.7,24.0,85,67,51,30.23,29.81,6,2,11,0.00
2014-11-8,47.0,41.5,36.0,38.0,31.3,26.0,87,67,48,29.98,29.72,6,2,18,0.02
2014-11-9,53.0,42.6,35.0,40.0,32.0,26.0,86,67,49,29.96,29.75,11,3,19,0.01
2014-11-10,63.0,52.1,42.0,46.0,42.6,38.0,92,71,53,29.84,29.52,8,3,18,0.00
2014-11-11,57.0,41.2,30.0,47.0,34.5,21.0,90,78,63,30.15,29.58,9,4,18,0.02
2014-11-12,30.0,26.0,25.0,22.0,16.7,14.0,73,65,55,30.30,30.15,6,4,14,0.02
2014-11-13,28.0,25.1,23.0,20.0,17.5,15.0,82,73,58,30.31,30.27,5,2,10,0.00
2014-11-14,27.0,24.6,21.0,18.0,15.5,13.0,80,68,60,30.37,30.30,4,1,8,0.00
2014-11-15,30.0,21.9,14.0,21.0,14.6,11.0,90,72,50,30.38,30.21,5,1,10,0.00
2014-11-16,31.0,26.2,18.0,26.0,22.7,13.0,91,86,74,30.21,29.91,5,2,14,0.00
2014-11-17,19.0,12.5,9.0,11.0,7.2,5.0,86,79,66,29.97,29.83,9,5,22,0.00
2014-11-18,17.0,13.7,8.0,11.0,7.0,3.0,82,74,64,30.11,29.96,9,5,22,0.00
2014-11-19,29.0,22.5,15.0,20.0,14.0,8.0,76,69,63,30.06,29.76,10,4,20,0.00
2014-11-20,26.0,20.2,13.0,9.0,5.9,4.0,68,54,39,30.32,30.05,9,4,20,0.00
2014-11-21,34.0,21.5,6.0,15.0,6.6,3.0,89,57,29,30.46,30.18,6,2,15,0.00
2014-11-22,51.0,40.2,32.0,47.0,36.2,18.0,94,84,51,30.15,29.84,6,3,16,0.12
2014-11-23,51.0,49.6,48.0,48.0,46.6,44.0,95,90,85,29.85,29.12,6,2,13,0.63
2014-11-24,49.0,32.6,23.0,48.0,30.2,19.0,95,91,85,29.81,29.08,13,7,28,0.78
2014-11-25,26.0,20.9,14.0,20.0,16.8,12.0,93,84,76,30.21,29.83,7,3,17,0.04
2014-11-26,30.0,22.4,12.0,25.0,19.1,10.0,92,87,77,30.20,30.11,2,0,9,0.00
2014-11-27,26.0,19.9,11.0,22.0,15.5,9.0,91,83,72,30.42,30.20,6,2,12,0.00
2014-11-28,34.0,25.3,15.0,31.0,20.2,12.0,89,81,66,30.38,29.89,6,2,13,0.00
2014-11-29,52.0,41.7,32.0,47.0,37.8,29.0,92,84,76,29.88,29.58,9,4,18,0.00
2014-11-30,49.0,38.7,23.0,47.0,35.9,16.0,94,89,73,30.32,29.64,7,3,14,0.00
2014-12-1,22.0,17.7,15.0,17.0,5.8,0.0,80,60,44,30.67,30.33,5,2,10,0.00
2014-12-2,35.0,27.3,18.0,27.0,21.4,14.0,90,79,66,30.53,30.06,7,2,15,0.00
2014-12-3,37.0,28.8,23.0,24.0,19.8,14.0,88,70,49,30.39,30.06,9,3,15,0.00
2014-12-4,34.0,28.9,22.0,26.0,19.8,12.0,75,68,63,30.42,30.27,5,1,10,0.00
2014-12-5,39.0,34.6,31.0,34.0,30.7,26.0,91,85,75,30.27,30.16,3,0,7,0.00
2014-12-6,39.0,31.7,26.0,31.0,27.2,23.0,91,82,70,30.66,30.25,7,2,14,0.00
2014-12-7,36.0,30.1,23.0,28.0,23.9,21.0,93,78,60,30.65,30.29,5,1,11,0.00
2014-12-8,36.0,33.9,32.0,34.0,31.3,27.0,94,90,81,30.28,29.98,4,2,11,0.16
2014-12-9,37.0,33.7,30.0,33.0,30.4,25.0,93,88,83,30.41,30.09,4,3,11,0.02
2014-12-10,32.0,26.9,28.0,27.0,22.7,23.0,86,76,82,30.41,30.28,4,1,10,0.00
2014-12-11,33.0,26.4,24.0,25.0,22.2,20.0,90,82,71,30.29,30.22,5,2,10,0.00
2014-12-12,36.0,31.3,22.0,33.0,29.0,20.0,93,90,88,30.34,30.23,4,2,11,0.00
2014-12-13,46.0,41.0,35.0,43.0,38.6,33.0,93,91,89,30.24,30.09,6,3,15,0.00
2014-12-14,48.0,45.8,45.0,46.0,43.8,43.0,95,91,89,30.11,30.01,5,2,11,0.00
2014-12-15,46.0,44.2,42.0,45.0,42.7,40.0,95,94,92,30.01,29.67,5,3,14,0.06
2014-12-16,44.0,38.4,28.0,42.0,36.0,23.0,95,90,81,30.14,29.65,7,2,17,0.10
2014-12-17,28.0,24.8,23.0,23.0,19.4,17.0,84,79,76,30.30,30.14,6,3,12,0.01
2014-12-18,27.0,23.2,16.0,23.0,18.6,14.0,90,83,77,30.32,30.23,3,0,6,0.00
2014-12-19,30.0,27.8,27.0,24.0,23.6,23.0,88,84,76,30.34,30.27,3,0,5,0.00
2014-12-20,32.0,25.8,27.0,28.0,21.4,24.0,88,79,77,30.29,30.24,3,1,7,0.00
2014-12-21,37.0,33.2,32.0,31.0,29.2,28.0,87,85,79,30.25,30.02,5,2,14,0.00
2014-12-22,40.0,34.8,29.0,38.0,32.1,26.0,94,90,83,30.02,29.60,3,2,9,0.38
2014-12-23,48.0,42.5,36.0,44.0,38.6,34.0,95,86,69,29.78,29.54,8,2,17,0.37
2014-12-24,40.0,36.7,35.0,36.0,34.1,32.0,93,90,85,29.73,29.49,5,2,13,0.00
2014-12-25,44.0,37.3,33.0,37.0,32.4,29.0,89,82,70,30.03,29.65,8,4,19,0.00
2014-12-26,51.0,42.4,36.0,43.0,37.5,33.0,90,83,68,30.05,29.98,6,2,14,0.00
2014-12-27,48.0,39.3,30.0,46.0,35.7,25.0,93,85,79,30.13,29.94,12,4,25,0.00
2014-12-28,35.0,26.5,21.0,25.0,19.0,16.0,88,75,48,30.27,30.11,6,1,11,0.00
2014-12-29,29.0,23.9,18.0,22.0,18.0,11.0,87,78,67,30.51,30.26,4,1,8,0.00
2014-12-30,19.0,12.8,7.0,11.0,2.5,-3.0,85,64,40,30.68,30.52,6,2,13,0.00
2014-12-31,18.0,10.7,2.0,6.0,0.5,-5.0,76,63,53,30.60,30.14,9,5,25,0.00
2015-1-1,32.0,22.4,14.0,19.0,13.2,6.0,76,68,57,30.14,29.96,11,6,22,0.00
2015-1-2,35.0,26.1,15.0,23.0,19.6,13.0,92,77,56,30.32,30.14,2,0,4,0.00